createdAt,value
2023-01-17T00:00:51.620Z,3.41
2023-01-17T00:03:30.755Z,3.37
2023-01-17T00:06:26.385Z,3.31
2023-01-17T00:09:18.432Z,3.26
2023-01-17T00:12:10.909Z,3.23
2023-01-17T00:14:58.836Z,3.19
2023-01-17T00:17:31.042Z,3.16
2023-01-17T00:20:19.999Z,3.10
2023-01-17T00:23:10.787Z,3.05
2023-01-17T00:26:00.957Z,2.97
2023-01-17T00:28:32.060Z,2.93
2023-01-17T00:31:05.571Z,2.87
2023-01-17T00:33:39.807Z,2.82
2023-01-17T00:36:18.953Z,2.77
2023-01-17T00:38:49.924Z,2.72
2023-01-17T00:41:30.965Z,2.68
2023-01-17T00:44:27.032Z,2.65
2023-01-17T00:47:45.018Z,2.62
2023-01-17T00:50:43.280Z,2.57
2023-01-17T00:53:46.646Z,2.54
2023-01-17T00:56:38.657Z,2.52
2023-01-17T00:59:25.568Z,2.51
2023-01-17T01:02:32.045Z,2.51
2023-01-17T01:05:20.292Z,2.50
2023-01-17T01:08:08.010Z,2.49
2023-01-17T01:10:54.914Z,2.48
2023-01-17T01:13:46.121Z,2.47
2023-01-17T01:16:33.731Z,2.47
2023-01-17T01:19:22.141Z,2.49
2023-01-17T01:22:11.538Z,2.49
2023-01-17T01:25:21.208Z,2.49
2023-01-17T01:28:10.063Z,2.48
2023-01-17T01:30:57.234Z,2.46
2023-01-17T01:33:25.067Z,2.44
2023-01-17T01:35:55.187Z,2.43
2023-01-17T01:38:25.295Z,2.42
2023-01-17T01:40:55.761Z,2.41
2023-01-17T01:43:41.836Z,2.41
2023-01-17T01:46:17.294Z,2.38
2023-01-17T01:49:28.896Z,2.35
2023-01-17T01:52:02.240Z,2.32
2023-01-17T01:54:37.340Z,2.30
2023-01-17T01:57:09.407Z,2.32
2023-01-17T01:59:42.597Z,2.32
2023-01-17T02:02:11.024Z,2.34
2023-01-17T02:04:39.148Z,2.36
2023-01-17T02:07:12.672Z,2.37
2023-01-17T02:09:40.781Z,2.41
2023-01-17T02:12:09.214Z,2.44
2023-01-17T02:14:36.992Z,2.47
2023-01-17T02:17:36.456Z,2.49
2023-01-17T02:20:32.053Z,2.50
2023-01-17T02:23:36.525Z,2.51
2023-01-17T02:26:35.456Z,2.51
2023-01-17T02:29:29.548Z,2.51
2023-01-17T02:32:13.208Z,2.52
2023-01-17T02:35:20.422Z,2.53
2023-01-17T02:38:06.095Z,2.53
2023-01-17T02:40:58.047Z,2.52
2023-01-17T02:43:26.603Z,2.49
2023-01-17T02:45:54.571Z,2.46
2023-01-17T02:48:26.139Z,2.45
2023-01-17T02:51:21.168Z,2.44
2023-01-17T02:53:54.230Z,2.44
2023-01-17T02:57:03.425Z,2.42
2023-01-17T02:59:40.560Z,2.42
2023-01-17T03:03:06.831Z,2.42
2023-01-17T03:05:43.132Z,2.47
2023-01-17T03:08:13.012Z,2.51
2023-01-17T03:10:42.521Z,2.57
2023-01-17T03:13:10.321Z,2.63
2023-01-17T03:15:40.161Z,2.68
2023-01-17T03:18:14.645Z,2.73
2023-01-17T03:20:42.906Z,2.79
2023-01-17T03:23:12.796Z,2.82
2023-01-17T03:25:40.557Z,2.85
2023-01-17T03:28:08.368Z,2.87
2023-01-17T03:30:36.225Z,2.90
2023-01-17T03:33:04.068Z,2.92
2023-01-17T03:35:32.042Z,2.92
2023-01-17T03:37:59.903Z,2.93
2023-01-17T03:40:27.648Z,2.91
2023-01-17T03:42:55.816Z,2.87
2023-01-17T03:45:23.784Z,2.82
2023-01-17T03:47:51.734Z,2.77
2023-01-17T03:50:19.946Z,2.73
2023-01-17T03:52:47.923Z,2.69
2023-01-17T03:55:15.668Z,2.66
2023-01-17T03:57:43.648Z,2.63
2023-01-17T04:00:12.161Z,2.61
2023-01-17T04:02:39.909Z,2.58
2023-01-17T04:05:08.553Z,2.56
2023-01-17T04:07:36.356Z,2.55
2023-01-17T04:10:04.546Z,2.52
2023-01-17T04:12:33.253Z,2.50
2023-01-17T04:15:01.156Z,2.49
2023-01-17T04:17:29.009Z,2.49
2023-01-17T04:19:57.034Z,2.48
2023-01-17T04:22:25.000Z,2.46
2023-01-17T04:24:52.711Z,2.44
2023-01-17T04:27:22.047Z,2.42
2023-01-17T04:29:49.938Z,2.38
2023-01-17T04:32:17.756Z,2.33
2023-01-17T04:34:45.683Z,2.30
2023-01-17T04:37:13.614Z,2.25
2023-01-17T04:39:41.430Z,2.19
2023-01-17T04:42:09.417Z,2.16
2023-01-17T04:44:37.403Z,2.10
2023-01-17T04:47:05.196Z,2.03
2023-01-17T04:49:33.055Z,1.98
2023-01-17T04:52:00.916Z,1.91
2023-01-17T04:54:28.581Z,1.87
2023-01-17T04:56:56.470Z,1.82
2023-01-17T04:59:24.865Z,1.81
2023-01-17T05:01:52.601Z,1.78
2023-01-17T05:04:20.467Z,1.76
2023-01-17T05:06:48.235Z,1.74
2023-01-17T05:09:15.938Z,1.72
2023-01-17T05:11:46.058Z,1.71
2023-01-17T05:14:13.830Z,1.71
2023-01-17T05:16:41.649Z,1.72
2023-01-17T05:19:10.448Z,1.72
2023-01-17T05:21:38.264Z,1.72
2023-01-17T05:24:06.401Z,1.71
2023-01-17T05:26:34.170Z,1.71
2023-01-17T05:29:01.939Z,1.69
2023-01-17T05:31:29.729Z,1.69
2023-01-17T05:33:57.664Z,1.69
2023-01-17T05:36:25.433Z,1.68
2023-01-17T05:38:53.140Z,1.69
2023-01-17T05:41:21.225Z,1.70
2023-01-17T05:43:49.102Z,1.71
2023-01-17T05:46:18.111Z,1.72
2023-01-17T05:48:46.040Z,1.75
2023-01-17T05:51:13.920Z,1.78
2023-01-17T05:53:41.597Z,1.82
2023-01-17T05:56:09.394Z,1.87
2023-01-17T05:58:37.084Z,1.91
2023-01-17T06:01:04.850Z,1.97
2023-01-17T06:03:32.747Z,2.04
2023-01-17T06:06:00.479Z,2.11
2023-01-17T06:08:28.172Z,2.18
2023-01-17T06:10:59.441Z,2.26
2023-01-17T06:13:27.418Z,2.32
2023-01-17T06:15:57.768Z,2.38
2023-01-17T06:18:25.564Z,2.42
2023-01-17T06:20:56.752Z,2.44
2023-01-17T06:23:24.826Z,2.46
2023-01-17T06:25:52.659Z,2.48
2023-01-17T06:28:22.916Z,2.52
2023-01-17T06:30:50.775Z,2.53
2023-01-17T06:33:18.638Z,2.57
2023-01-17T06:35:50.907Z,2.59
2023-01-17T06:38:19.826Z,2.60
2023-01-17T06:40:48.166Z,2.61
2023-01-17T06:43:16.212Z,2.63
2023-01-17T06:45:43.904Z,2.64
2023-01-17T06:48:11.780Z,2.65
2023-01-17T06:50:39.609Z,2.67
2023-01-17T06:53:07.672Z,2.70
2023-01-17T06:55:39.533Z,2.74
2023-01-17T06:58:09.666Z,2.78
2023-01-17T07:00:40.589Z,2.82
2023-01-17T07:03:24.443Z,2.85
2023-01-17T07:05:53.210Z,2.88
2023-01-17T07:08:21.043Z,2.91
2023-01-17T07:10:49.337Z,2.93
2023-01-17T07:13:17.204Z,2.95
2023-01-17T07:15:44.932Z,2.97
2023-01-17T07:18:12.770Z,3.01
2023-01-17T07:20:43.880Z,3.05
2023-01-17T07:23:14.083Z,3.09
2023-01-17T07:25:44.498Z,3.12
2023-01-17T07:28:12.309Z,3.15
2023-01-17T07:30:40.168Z,3.20
2023-01-17T07:33:08.783Z,3.23
2023-01-17T07:35:39.283Z,3.26
2023-01-17T07:38:11.457Z,3.28
2023-01-17T07:40:42.439Z,3.32
2023-01-17T07:43:16.436Z,3.36
2023-01-17T07:45:50.733Z,3.40
2023-01-17T07:48:20.672Z,3.44
2023-01-17T07:50:56.665Z,3.48
2023-01-17T07:53:27.037Z,3.51
2023-01-17T07:55:55.272Z,3.54
2023-01-17T07:58:23.161Z,3.58
2023-01-17T08:00:53.104Z,3.60
2023-01-17T08:03:20.986Z,3.63
2023-01-17T08:05:59.958Z,3.65
2023-01-17T08:08:28.969Z,3.68
2023-01-17T08:10:56.819Z,3.73
2023-01-17T08:13:24.957Z,3.79
2023-01-17T08:15:54.459Z,3.84
2023-01-17T08:18:22.385Z,3.91
2023-01-17T08:20:51.299Z,3.97
2023-01-17T08:23:19.078Z,4.03
2023-01-17T08:25:46.867Z,4.08
2023-01-17T08:28:15.958Z,4.15
2023-01-17T08:30:43.720Z,4.23
2023-01-17T08:33:11.652Z,4.30
2023-01-17T08:35:40.247Z,4.35
2023-01-17T08:38:08.912Z,4.44
2023-01-17T08:40:36.987Z,4.51
2023-01-17T08:43:04.716Z,4.58
2023-01-17T08:45:32.724Z,4.65
2023-01-17T08:48:00.641Z,4.73
2023-01-17T08:50:28.479Z,4.79
2023-01-17T08:53:01.045Z,4.87
2023-01-17T08:55:30.054Z,4.97
2023-01-17T08:57:58.257Z,5.08
2023-01-17T09:00:27.208Z,5.18
2023-01-17T09:02:55.145Z,5.29
2023-01-17T09:05:23.245Z,5.37
2023-01-17T09:07:51.306Z,5.46
2023-01-17T09:10:19.241Z,5.51
2023-01-17T09:12:47.070Z,5.56
2023-01-17T09:15:17.821Z,5.60
2023-01-17T09:17:46.367Z,5.65
2023-01-17T09:20:14.547Z,5.71
2023-01-17T09:22:42.360Z,5.77
2023-01-17T09:25:10.417Z,5.83
2023-01-17T09:27:38.231Z,5.90
2023-01-17T09:30:06.966Z,5.99
2023-01-17T09:32:35.094Z,6.08
2023-01-17T09:35:05.267Z,6.15
2023-01-17T09:37:33.022Z,6.24
2023-01-17T09:40:01.149Z,6.28
2023-01-17T09:42:38.267Z,6.34
2023-01-17T09:45:14.886Z,6.38
2023-01-17T09:47:49.527Z,6.39
2023-01-17T09:50:37.921Z,6.37
2023-01-17T09:53:12.524Z,6.32
2023-01-17T09:55:53.230Z,6.28
2023-01-17T09:58:30.104Z,6.26
2023-01-17T10:01:03.624Z,6.22
2023-01-17T10:03:43.337Z,6.16
2023-01-17T10:06:43.597Z,6.12
2023-01-17T10:09:23.646Z,6.06
2023-01-17T10:12:13.890Z,6.01
2023-01-17T10:14:54.901Z,5.98
2023-01-17T10:17:49.061Z,5.96
2023-01-17T10:20:50.837Z,5.95
2023-01-17T10:23:40.130Z,5.96
2023-01-17T10:26:17.376Z,6.01
2023-01-17T10:28:51.637Z,6.09
2023-01-17T10:31:24.851Z,6.20
2023-01-17T10:33:57.832Z,6.36
2023-01-17T10:36:30.493Z,6.53
2023-01-17T10:39:04.976Z,6.66
2023-01-17T10:41:37.510Z,6.73
2023-01-17T10:44:24.588Z,6.80
2023-01-17T10:47:14.793Z,6.87
2023-01-17T10:49:47.236Z,6.90
2023-01-17T10:52:34.088Z,6.93
2023-01-17T10:55:29.883Z,6.91
2023-01-17T10:58:01.448Z,6.85
2023-01-17T11:01:08.696Z,6.79
2023-01-17T11:03:37.121Z,6.79
2023-01-17T11:06:25.315Z,6.86
2023-01-17T11:08:58.332Z,6.93
2023-01-17T11:11:32.039Z,6.97
2023-01-17T11:14:03.523Z,7.03
2023-01-17T11:16:32.091Z,7.11
2023-01-17T11:19:27.811Z,7.14
2023-01-17T11:22:01.592Z,7.10
2023-01-17T11:24:52.893Z,7.07
2023-01-17T11:27:33.554Z,7.10
2023-01-17T11:30:09.232Z,7.14
2023-01-17T11:32:37.043Z,7.21
2023-01-17T11:35:25.442Z,7.24
2023-01-17T11:38:02.537Z,7.29
2023-01-17T11:40:36.189Z,7.30
2023-01-17T11:43:14.336Z,7.33
2023-01-17T11:45:42.193Z,7.31
2023-01-17T11:48:13.033Z,7.25
2023-01-17T11:50:57.151Z,7.26
2023-01-17T11:53:38.429Z,7.23
2023-01-17T11:56:09.836Z,7.17
2023-01-17T11:58:43.579Z,7.14
2023-01-17T12:01:37.245Z,7.15
2023-01-17T12:04:18.336Z,7.17
2023-01-17T12:07:05.120Z,7.24
2023-01-17T12:10:01.351Z,7.30
2023-01-17T12:12:56.729Z,7.42
2023-01-17T12:15:53.159Z,7.52
2023-01-17T12:18:43.008Z,7.64
2023-01-17T12:21:22.796Z,7.74
2023-01-17T12:24:25.827Z,7.84
2023-01-17T12:27:06.928Z,8.01
2023-01-17T12:29:46.432Z,8.14
2023-01-17T12:32:17.004Z,8.09
2023-01-17T12:34:55.024Z,7.89
2023-01-17T12:37:44.223Z,7.69
2023-01-17T12:40:33.500Z,7.45
2023-01-17T12:43:38.040Z,7.25
2023-01-17T12:46:16.992Z,7.16
2023-01-17T12:48:45.047Z,7.32
2023-01-17T12:51:20.441Z,7.44
2023-01-17T12:54:06.382Z,7.57
2023-01-17T12:56:43.734Z,7.78
2023-01-17T12:59:37.833Z,8.07
2023-01-17T13:02:22.957Z,8.24
2023-01-17T13:04:59.895Z,8.23
2023-01-17T13:07:46.244Z,8.38
2023-01-17T13:10:41.567Z,8.58
2023-01-17T13:13:26.824Z,8.67
2023-01-17T13:16:05.010Z,8.88
2023-01-17T13:18:35.725Z,9.07
2023-01-17T13:21:25.504Z,9.16
2023-01-17T13:23:59.540Z,9.28
2023-01-17T13:26:27.791Z,9.34
2023-01-17T13:29:08.578Z,9.38
2023-01-17T13:31:53.765Z,9.41
2023-01-17T13:34:38.822Z,9.41
2023-01-17T13:37:35.193Z,9.42
2023-01-17T13:40:29.782Z,9.44
2023-01-17T13:43:00.540Z,9.49
2023-01-17T13:45:32.174Z,9.53
2023-01-17T13:48:12.307Z,9.60
2023-01-17T13:51:03.554Z,9.60
2023-01-17T13:53:35.256Z,9.66
2023-01-17T13:56:21.997Z,9.73
2023-01-17T13:58:54.861Z,9.77
2023-01-17T14:01:23.275Z,9.75
2023-01-17T14:03:51.683Z,9.76
2023-01-17T14:06:30.644Z,9.72
2023-01-17T14:09:10.711Z,9.54
2023-01-17T14:11:59.875Z,9.31
2023-01-17T14:14:39.642Z,9.19
2023-01-17T14:17:16.588Z,9.05
2023-01-17T14:19:46.800Z,8.92
2023-01-17T14:22:23.762Z,8.80
2023-01-17T14:25:10.084Z,8.61
2023-01-17T14:28:03.230Z,8.33
2023-01-17T14:30:33.765Z,8.12
2023-01-17T14:33:01.679Z,8.01
2023-01-17T14:35:34.017Z,7.91
2023-01-17T14:38:03.162Z,7.80
2023-01-17T14:40:34.472Z,7.71
2023-01-17T14:43:20.338Z,7.61
2023-01-17T14:45:49.231Z,7.47
2023-01-17T14:48:20.627Z,7.33
2023-01-17T14:50:50.675Z,7.18
2023-01-17T14:53:22.028Z,7.03
2023-01-17T14:55:59.675Z,6.86
2023-01-17T14:58:31.855Z,6.68
2023-01-17T15:01:07.205Z,6.49
2023-01-17T15:04:04.686Z,6.33
2023-01-17T15:06:41.859Z,6.14
2023-01-17T15:09:18.461Z,5.96
2023-01-17T15:11:49.013Z,5.80
2023-01-17T15:14:24.542Z,5.67
2023-01-17T15:16:52.397Z,5.51
2023-01-17T15:19:21.952Z,5.39
2023-01-17T15:21:51.460Z,5.26
2023-01-17T15:24:25.317Z,5.13
2023-01-17T15:26:53.511Z,4.99
2023-01-17T15:29:24.184Z,4.89
2023-01-17T15:31:54.726Z,4.78
2023-01-17T15:34:59.395Z,4.68
2023-01-17T15:37:37.614Z,4.55
2023-01-17T15:40:16.797Z,4.45
2023-01-17T15:42:48.080Z,4.38
2023-01-17T15:45:23.392Z,4.29
2023-01-17T15:47:51.364Z,4.20
2023-01-17T15:50:27.973Z,4.14
2023-01-17T15:53:01.827Z,4.06
2023-01-17T15:55:35.364Z,3.97
2023-01-17T15:58:05.299Z,3.89
2023-01-17T16:00:39.269Z,3.82
2023-01-17T16:03:19.645Z,3.75
2023-01-17T16:05:49.955Z,3.68
2023-01-17T16:08:17.535Z,3.63
2023-01-17T16:10:45.563Z,3.57
2023-01-17T16:13:13.753Z,3.51
2023-01-17T16:15:41.528Z,3.44
2023-01-17T16:18:18.152Z,3.39
2023-01-17T16:20:55.263Z,3.35
2023-01-17T16:23:23.430Z,3.30
2023-01-17T16:25:51.541Z,3.26
2023-01-17T16:28:19.749Z,3.23
2023-01-17T16:30:49.503Z,3.19
2023-01-17T16:33:17.356Z,3.15
2023-01-17T16:35:45.524Z,3.12
2023-01-17T16:38:16.147Z,3.08
2023-01-17T16:40:45.869Z,3.04
2023-01-17T16:43:17.514Z,3.00
2023-01-17T16:45:47.705Z,2.96
2023-01-17T16:48:17.188Z,2.90
2023-01-17T16:50:50.845Z,2.85
2023-01-17T16:53:24.657Z,2.81
2023-01-17T16:55:57.401Z,2.76
2023-01-17T16:58:25.332Z,2.73
2023-01-17T17:00:55.252Z,2.70
2023-01-17T17:03:23.515Z,2.66
2023-01-17T17:06:00.976Z,2.60
2023-01-17T17:08:29.522Z,2.58
2023-01-17T17:11:13.260Z,2.56
2023-01-17T17:13:43.296Z,2.54
2023-01-17T17:16:18.876Z,2.51
2023-01-17T17:18:55.143Z,2.48
2023-01-17T17:21:23.080Z,2.45
2023-01-17T17:23:59.620Z,2.41
2023-01-17T17:26:31.065Z,2.38
2023-01-17T17:28:59.054Z,2.34
2023-01-17T17:31:27.278Z,2.29
2023-01-17T17:34:02.480Z,2.26
2023-01-17T17:36:31.744Z,2.23
2023-01-17T17:39:02.221Z,2.20
2023-01-17T17:41:33.194Z,2.18
2023-01-17T17:44:02.621Z,2.18
2023-01-17T17:46:31.076Z,2.17
2023-01-17T17:48:59.416Z,2.15
2023-01-17T17:51:30.420Z,2.12
2023-01-17T17:54:03.269Z,2.09
2023-01-17T17:56:32.897Z,2.06
2023-01-17T17:59:01.748Z,2.03
2023-01-17T18:01:29.970Z,2.00
2023-01-17T18:04:02.124Z,1.98
2023-01-17T18:06:30.912Z,1.95
2023-01-17T18:08:58.815Z,1.91
2023-01-17T18:11:27.926Z,1.88
2023-01-17T18:13:58.582Z,1.87
2023-01-17T18:16:30.331Z,1.86
2023-01-17T18:18:59.106Z,1.84
2023-01-17T18:21:29.594Z,1.83
2023-01-17T18:24:00.484Z,1.82
2023-01-17T18:26:34.755Z,1.79
2023-01-17T18:29:04.390Z,1.79
2023-01-17T18:31:32.652Z,1.77
2023-01-17T18:34:06.271Z,1.77
2023-01-17T18:36:37.067Z,1.75
2023-01-17T18:39:11.718Z,1.76
2023-01-17T18:41:39.878Z,1.77
2023-01-17T18:44:08.316Z,1.77
2023-01-17T18:46:37.132Z,1.79
2023-01-17T18:49:05.246Z,1.82
2023-01-17T18:51:34.560Z,1.82
2023-01-17T18:54:06.999Z,1.83
2023-01-17T18:56:35.496Z,1.83
2023-01-17T18:59:05.965Z,1.85
2023-01-17T19:01:36.061Z,1.87
2023-01-17T19:04:05.720Z,1.87
2023-01-17T19:06:37.279Z,1.89
2023-01-17T19:09:07.968Z,1.90
2023-01-17T19:11:39.136Z,1.89
2023-01-17T19:14:07.461Z,1.89
2023-01-17T19:16:39.577Z,1.89
2023-01-17T19:19:14.056Z,1.89
2023-01-17T19:21:42.248Z,1.89
2023-01-17T19:24:13.182Z,1.88
2023-01-17T19:26:42.951Z,1.87
2023-01-17T19:29:11.110Z,1.87
2023-01-17T19:31:42.798Z,1.86
2023-01-17T19:34:13.785Z,1.84
2023-01-17T19:36:42.687Z,1.83
2023-01-17T19:39:10.707Z,1.82
2023-01-17T19:41:43.737Z,1.81
2023-01-17T19:44:13.910Z,1.79
2023-01-17T19:46:41.737Z,1.80
2023-01-17T19:49:10.512Z,1.80
2023-01-17T19:51:39.664Z,1.79
2023-01-17T19:54:08.470Z,1.79
2023-01-17T19:56:36.792Z,1.79
2023-01-17T19:59:04.771Z,1.79
2023-01-17T20:01:34.025Z,1.76
2023-01-17T20:04:03.611Z,1.74
2023-01-17T20:06:34.347Z,1.71
2023-01-17T20:09:03.019Z,1.68
2023-01-17T20:11:31.014Z,1.66
2023-01-17T20:13:59.997Z,1.62
2023-01-17T20:16:30.314Z,1.60
2023-01-17T20:18:59.553Z,1.58
2023-01-17T20:21:28.265Z,1.56
2023-01-17T20:23:57.573Z,1.53
2023-01-17T20:26:36.888Z,1.49
2023-01-17T20:29:10.254Z,1.46
2023-01-17T20:31:40.693Z,1.44
2023-01-17T20:34:11.807Z,1.42
2023-01-17T20:36:41.893Z,1.39
2023-01-17T20:39:13.012Z,1.35
2023-01-17T20:41:43.179Z,1.31
2023-01-17T20:44:13.984Z,1.27
2023-01-17T20:46:42.733Z,1.22
2023-01-17T20:49:15.320Z,1.18
2023-01-17T20:51:44.708Z,1.14
2023-01-17T20:54:14.992Z,1.09
2023-01-17T20:56:43.656Z,1.07
2023-01-17T20:59:17.442Z,1.05
2023-01-17T21:01:45.995Z,1.05
2023-01-17T21:04:14.927Z,1.03
2023-01-17T21:06:44.204Z,1.01
2023-01-17T21:09:14.603Z,0.94
2023-01-17T21:11:43.040Z,0.84
2023-01-17T21:14:11.111Z,0.79
2023-01-17T21:16:39.321Z,0.75
2023-01-17T21:19:11.896Z,0.72
2023-01-17T21:21:40.070Z,0.70
2023-01-17T21:24:08.611Z,0.69
2023-01-17T21:26:38.917Z,0.69
2023-01-17T21:29:07.184Z,0.67
2023-01-17T21:31:36.816Z,0.67
2023-01-17T21:34:05.906Z,0.65
2023-01-17T21:36:39.456Z,0.67
2023-01-17T21:39:11.924Z,0.68
2023-01-17T21:41:41.229Z,0.69
2023-01-17T21:44:13.094Z,0.71
2023-01-17T21:46:41.908Z,0.70
2023-01-17T21:49:12.060Z,0.71
2023-01-17T21:51:55.437Z,0.69
2023-01-17T21:54:44.430Z,0.71
2023-01-17T21:57:33.698Z,0.72
2023-01-17T22:00:01.508Z,0.73
2023-01-17T22:02:29.424Z,0.73
2023-01-17T22:04:57.278Z,0.72
2023-01-17T22:07:27.115Z,0.71
2023-01-17T22:09:54.969Z,0.70
2023-01-17T22:12:22.707Z,0.67
2023-01-17T22:14:50.394Z,0.65
2023-01-17T22:17:18.262Z,0.62
2023-01-17T22:19:46.109Z,0.59
2023-01-17T22:22:13.804Z,0.55
2023-01-17T22:24:42.030Z,0.54
2023-01-17T22:27:10.503Z,0.55
2023-01-17T22:29:38.358Z,0.58
2023-01-17T22:32:06.292Z,0.62
2023-01-17T22:34:33.988Z,0.67
2023-01-17T22:37:03.985Z,0.72
2023-01-17T22:39:32.037Z,0.77
2023-01-17T22:41:59.767Z,0.79
2023-01-17T22:44:27.430Z,0.81
2023-01-17T22:46:55.117Z,0.82
2023-01-17T22:49:23.620Z,0.82
2023-01-17T22:51:51.454Z,0.82
2023-01-17T22:54:19.540Z,0.84
2023-01-17T22:56:48.832Z,0.86
2023-01-17T22:59:16.521Z,0.86
2023-01-17T23:01:44.595Z,0.88
2023-01-17T23:04:14.305Z,0.90
2023-01-17T23:06:42.303Z,0.94
2023-01-17T23:09:12.697Z,0.96
2023-01-17T23:11:43.415Z,0.95
2023-01-17T23:14:22.767Z,0.92
2023-01-17T23:17:14.178Z,0.89
2023-01-17T23:19:48.215Z,0.84
2023-01-17T23:22:24.073Z,0.83
2023-01-17T23:25:04.518Z,0.81
2023-01-17T23:27:52.452Z,0.78
2023-01-17T23:30:25.099Z,0.76
2023-01-17T23:32:55.571Z,0.73
2023-01-17T23:35:29.152Z,0.72
2023-01-17T23:38:16.267Z,0.77
2023-01-17T23:41:08.100Z,0.83
2023-01-17T23:43:36.506Z,0.91
2023-01-17T23:46:05.449Z,1.00
2023-01-17T23:48:33.121Z,1.11
2023-01-17T23:51:08.584Z,1.18
2023-01-17T23:53:38.621Z,1.28
2023-01-17T23:56:13.789Z,1.31
2023-01-17T23:58:41.847Z,1.35
